createdAt,value
2022-12-01T00:00:12.751Z,19.98
2022-12-01T00:05:14.822Z,20.15
2022-12-01T00:10:26.138Z,19.83
2022-12-01T00:15:34.497Z,18.10
2022-12-01T00:20:36.578Z,18.13
2022-12-01T00:25:38.735Z,17.92
2022-12-01T00:30:40.772Z,20.58
2022-12-01T00:35:42.832Z,20.02
2022-12-01T00:40:44.812Z,18.02
2022-12-01T00:45:49.832Z,17.45
2022-12-01T00:50:52.671Z,19.95
2022-12-01T00:55:54.746Z,18.50
2022-12-01T01:00:59.027Z,18.45
2022-12-01T01:06:10.650Z,20.27
2022-12-01T01:11:12.616Z,19.13
2022-12-01T01:16:20.693Z,19.35
2022-12-01T01:21:23.431Z,19.88
2022-12-01T01:26:28.584Z,19.90
2022-12-01T01:31:31.390Z,20.40
2022-12-01T01:36:33.448Z,21.95
2022-12-01T01:41:35.439Z,20.33
2022-12-01T01:46:37.583Z,20.02
2022-12-01T01:51:46.581Z,20.52
2022-12-01T01:56:50.369Z,20.00
2022-12-01T02:02:00.410Z,18.95
2022-12-01T02:07:03.170Z,17.67
2022-12-01T02:12:29.995Z,18.15
2022-12-01T02:17:49.397Z,17.83
2022-12-01T02:23:16.096Z,18.20
2022-12-01T02:28:30.828Z,16.92
2022-12-01T02:33:40.442Z,19.83
2022-12-01T02:38:52.921Z,18.73
2022-12-01T02:44:11.109Z,17.30
2022-12-01T02:49:24.228Z,18.42
2022-12-01T02:54:30.510Z,18.98
2022-12-01T02:59:32.565Z,17.92
2022-12-01T03:04:55.906Z,18.60
2022-12-01T03:10:03.617Z,19.00
2022-12-01T03:15:30.718Z,20.00
2022-12-01T03:20:57.183Z,19.17
2022-12-01T03:26:03.435Z,19.00
2022-12-01T03:31:11.836Z,19.33
2022-12-01T03:36:30.222Z,19.73
2022-12-01T03:41:38.880Z,19.33
2022-12-01T03:46:48.802Z,21.08
2022-12-01T03:51:50.833Z,19.23
2022-12-01T03:56:57.156Z,18.88
2022-12-01T04:01:59.451Z,19.83
2022-12-01T04:07:01.568Z,20.10
2022-12-01T04:12:22.044Z,22.17
2022-12-01T04:17:25.111Z,21.73
2022-12-01T04:22:27.694Z,21.60
2022-12-01T04:27:29.735Z,24.27
2022-12-01T04:32:31.740Z,22.20
2022-12-01T04:37:33.859Z,22.30
2022-12-01T04:42:35.942Z,23.10
2022-12-01T04:47:37.989Z,20.75
2022-12-01T04:52:40.004Z,21.30
2022-12-01T04:57:42.177Z,21.92
2022-12-01T05:02:44.493Z,23.20
2022-12-01T05:07:46.759Z,22.10
2022-12-01T05:12:48.954Z,23.45
2022-12-01T05:17:50.989Z,22.38
2022-12-01T05:23:05.221Z,23.98
2022-12-01T05:28:08.140Z,22.48
2022-12-01T05:33:10.326Z,23.58
2022-12-01T05:38:12.394Z,21.80
2022-12-01T05:43:14.384Z,22.98
2022-12-01T05:48:17.816Z,21.90
2022-12-01T05:53:20.089Z,23.30
2022-12-01T05:58:22.325Z,23.30
2022-12-01T06:03:24.617Z,23.50
2022-12-01T06:08:26.736Z,23.92
2022-12-01T06:13:28.722Z,23.65
2022-12-01T06:18:33.866Z,23.80
2022-12-01T06:23:35.925Z,22.85
2022-12-01T06:28:37.974Z,23.73
2022-12-01T06:33:40.090Z,23.05
2022-12-01T06:38:42.193Z,23.58
2022-12-01T06:43:44.287Z,22.38
2022-12-01T06:48:49.066Z,23.80
2022-12-01T06:53:55.584Z,23.75
2022-12-01T06:58:59.028Z,23.85
2022-12-01T07:04:02.012Z,23.88
2022-12-01T07:09:04.342Z,22.75
2022-12-01T07:14:06.598Z,22.75
2022-12-01T07:19:09.266Z,23.88
2022-12-01T07:24:12.550Z,23.42
2022-12-01T07:29:14.837Z,21.92
2022-12-01T07:34:16.922Z,25.00
2022-12-01T07:39:19.021Z,23.35
2022-12-01T07:44:21.211Z,23.33
2022-12-01T07:49:23.417Z,22.45
2022-12-01T07:54:26.147Z,22.00
2022-12-01T07:59:28.142Z,22.92
2022-12-01T08:04:30.105Z,22.92
2022-12-01T08:09:32.293Z,22.17
2022-12-01T08:14:34.585Z,22.77
2022-12-01T08:19:36.727Z,22.95
2022-12-01T08:24:38.749Z,23.50
2022-12-01T08:29:40.878Z,24.08
2022-12-01T08:34:43.190Z,22.10
2022-12-01T08:39:45.170Z,22.02
2022-12-01T08:44:47.514Z,22.75
2022-12-01T08:49:50.217Z,21.65
2022-12-01T08:54:52.635Z,22.50
2022-12-01T08:59:55.280Z,21.95
2022-12-01T09:04:57.295Z,22.08
2022-12-01T09:09:59.321Z,23.38
2022-12-01T09:15:01.583Z,23.88
2022-12-01T09:20:05.236Z,24.55
2022-12-01T09:25:14.552Z,22.55
2022-12-01T09:30:16.946Z,21.98
2022-12-01T09:35:23.214Z,24.83
2022-12-01T09:40:31.374Z,23.20
2022-12-01T09:45:39.713Z,25.00
2022-12-01T09:50:43.533Z,23.48
2022-12-01T09:55:46.552Z,24.45
2022-12-01T10:00:49.915Z,23.83
2022-12-01T10:11:33.010Z,23.70
2022-12-01T10:16:45.729Z,23.85
2022-12-01T10:22:00.462Z,24.27
2022-12-01T10:27:27.338Z,24.50
2022-12-01T10:32:58.075Z,23.38
2022-12-01T10:38:03.558Z,24.55
2022-12-01T10:43:05.634Z,24.83
2022-12-01T10:48:20.149Z,25.15
2022-12-01T10:53:22.179Z,25.27
2022-12-01T10:58:24.430Z,23.60
2022-12-01T11:03:30.386Z,23.55
2022-12-01T11:08:45.367Z,25.25
2022-12-01T11:13:47.598Z,24.25
2022-12-01T11:18:49.871Z,24.95
2022-12-01T11:23:54.547Z,23.27
2022-12-01T11:29:05.916Z,24.77
2022-12-01T11:34:29.613Z,24.33
2022-12-01T11:39:35.154Z,23.88
2022-12-01T11:44:53.498Z,24.27
2022-12-01T11:50:04.229Z,24.33
2022-12-01T11:55:12.622Z,23.38
2022-12-01T12:00:21.077Z,22.13
2022-12-01T12:05:45.493Z,23.00
2022-12-01T12:11:02.521Z,20.83
2022-12-01T12:16:34.890Z,22.90
2022-12-01T12:22:14.269Z,20.27
2022-12-01T12:27:58.305Z,21.73
2022-12-01T12:33:23.996Z,22.52
2022-12-01T12:39:09.773Z,22.50
2022-12-01T12:44:45.452Z,21.17
2022-12-01T12:50:09.008Z,20.67
2022-12-01T12:55:16.983Z,19.33
2022-12-01T13:00:23.517Z,20.30
2022-12-01T13:05:40.129Z,19.35
2022-12-01T13:11:08.067Z,19.70
2022-12-01T13:16:22.829Z,20.05
2022-12-01T13:21:34.750Z,19.23
2022-12-01T13:26:37.973Z,21.10
2022-12-01T13:31:49.674Z,20.67
2022-12-01T13:36:53.711Z,20.63
2022-12-01T13:42:02.933Z,20.65
2022-12-01T13:47:24.863Z,21.92
2022-12-01T13:52:30.176Z,23.27
2022-12-01T13:57:34.330Z,24.02
2022-12-01T14:02:36.877Z,22.98
2022-12-01T14:07:40.066Z,23.08
2022-12-01T14:12:45.520Z,23.02
2022-12-01T14:17:57.471Z,20.90
2022-12-01T14:23:14.136Z,21.55
2022-12-01T14:28:17.392Z,21.98
2022-12-01T14:33:38.870Z,21.75
2022-12-01T14:38:42.066Z,21.10
2022-12-01T14:44:02.927Z,19.88
2022-12-01T14:49:05.950Z,22.07
2022-12-01T14:54:17.885Z,20.92
2022-12-01T14:59:22.642Z,22.20
2022-12-01T15:04:25.114Z,21.30
2022-12-01T15:09:35.670Z,20.35
2022-12-01T15:14:47.284Z,21.63
2022-12-01T15:19:49.960Z,19.65
2022-12-01T15:24:52.493Z,20.45
2022-12-01T15:29:56.028Z,21.17
2022-12-01T15:35:04.580Z,22.52
2022-12-01T15:40:59.846Z,22.02
2022-12-01T15:45:49.132Z,22.73
2022-12-01T15:51:08.694Z,22.15
2022-12-01T15:56:11.829Z,24.30
2022-12-01T16:01:17.023Z,24.40
2022-12-01T16:06:21.940Z,24.45
2022-12-01T16:11:24.101Z,23.83
2022-12-01T16:16:46.286Z,29.10
2022-12-01T16:21:51.420Z,25.55
2022-12-01T16:27:18.481Z,29.55
2022-12-01T16:32:29.850Z,23.48
2022-12-01T16:37:32.232Z,25.42
2022-12-01T16:42:34.266Z,26.17
2022-12-01T16:47:36.658Z,26.67
2022-12-01T16:52:46.206Z,24.58
2022-12-01T16:57:48.401Z,24.20
2022-12-01T17:02:51.089Z,25.13
2022-12-01T17:07:53.896Z,26.33
2022-12-01T17:12:56.547Z,26.15
2022-12-01T17:17:58.646Z,24.92
2022-12-01T17:23:01.046Z,27.45
2022-12-01T17:28:03.034Z,26.73
2022-12-01T17:33:05.274Z,28.13
2022-12-01T17:38:07.471Z,25.95
2022-12-01T17:43:09.430Z,26.83
2022-12-01T17:48:11.540Z,24.13
2022-12-01T17:53:13.740Z,25.50
2022-12-01T17:58:18.777Z,24.38
2022-12-01T18:03:21.283Z,26.27
2022-12-01T18:08:25.544Z,26.00
2022-12-01T18:13:27.772Z,25.20
2022-12-01T18:18:29.742Z,25.88
2022-12-01T18:23:31.884Z,25.30
2022-12-01T18:28:34.656Z,26.55
2022-12-01T18:33:38.581Z,25.08
2022-12-01T18:38:41.228Z,24.92
2022-12-01T18:43:44.297Z,26.27
2022-12-01T18:48:49.673Z,25.80
2022-12-01T18:53:54.815Z,23.80
2022-12-01T18:58:59.028Z,26.65
2022-12-01T19:04:02.299Z,26.65
2022-12-01T19:09:06.665Z,26.45
2022-12-01T19:14:15.509Z,27.95
2022-12-01T19:19:17.667Z,25.70
2022-12-01T19:24:19.945Z,27.42
2022-12-01T19:29:22.318Z,26.90
2022-12-01T19:34:24.426Z,27.05
2022-12-01T19:39:26.651Z,25.98
2022-12-01T19:44:28.806Z,25.55
2022-12-01T19:49:30.931Z,26.55
2022-12-01T19:54:34.879Z,25.50
2022-12-01T19:59:36.845Z,29.05
2022-12-01T20:04:39.994Z,27.13
2022-12-01T20:09:49.563Z,26.50
2022-12-01T20:14:52.327Z,27.00
2022-12-01T20:19:54.616Z,27.10
2022-12-01T20:24:56.585Z,28.48
2022-12-01T20:29:58.770Z,26.50
2022-12-01T20:35:01.881Z,26.38
2022-12-01T20:40:04.424Z,26.92
2022-12-01T20:45:07.353Z,25.60
2022-12-01T20:50:09.785Z,26.33
2022-12-01T20:55:11.892Z,26.20
2022-12-01T21:00:14.571Z,24.15
2022-12-01T21:05:16.781Z,25.52
2022-12-01T21:10:20.352Z,25.23
2022-12-01T21:15:25.315Z,25.15
2022-12-01T21:20:35.900Z,25.63
2022-12-01T21:25:39.348Z,25.70
2022-12-01T21:30:41.552Z,24.60
2022-12-01T21:35:43.578Z,24.02
2022-12-01T21:40:46.682Z,24.88
2022-12-01T21:46:15.364Z,25.67
2022-12-01T21:51:22.830Z,25.73
2022-12-01T21:56:27.444Z,24.67
2022-12-01T22:01:35.587Z,26.02
2022-12-01T22:06:39.912Z,25.52
2022-12-01T22:11:44.700Z,26.35
2022-12-01T22:17:05.395Z,27.48
2022-12-01T22:22:10.552Z,26.08
2022-12-01T22:27:30.887Z,25.60
2022-12-01T22:33:03.532Z,26.38
2022-12-01T22:38:05.493Z,27.48
2022-12-01T22:43:46.468Z,26.45
2022-12-01T22:48:55.691Z,28.00
2022-12-01T22:54:26.718Z,27.00
2022-12-01T22:59:34.941Z,27.43
2022-12-01T23:04:41.997Z,27.13
2022-12-01T23:09:44.518Z,25.83
2022-12-01T23:14:49.803Z,28.25
2022-12-01T23:19:58.664Z,27.25
2022-12-01T23:25:09.331Z,26.48
2022-12-01T23:30:13.218Z,27.60
2022-12-01T23:35:17.499Z,27.60
2022-12-01T23:40:33.023Z,26.88
2022-12-01T23:45:35.086Z,27.23
2022-12-01T23:50:37.128Z,28.13
2022-12-01T23:55:39.290Z,28.02
